EVA315 RCTP-YBBN
Flight info
| Callsign | EVA315 |
|---|---|
| Flight time | N/A |
| Altitude | 35000 |
| Route | KUDOS1A KUDOS R595 TUNTO DCT 21N131E 15N133E 09N135E 0330N13700E/N0487F370 01S139E 03S140E DCT KADAB DCT LIDIT R204 AVDAN/N0480F390 R204 CS Y177 BN |
| Aircraft | B77W/H-SDE1E2E3FGHIJ2J3J5M1P2RWY/LB1D1 |
Departure
| Time | N/A |
|---|---|
| Airport | Taiwan Taoyuan International Airport (RCTP) |
Arrival
| Time | 2026-05-04 02:28 |
|---|---|
| Airport | Brisbane International Airport (YBBN) |
| Time | Latitude | Longitude | Altitude | Speed | Heading |
|---|---|---|---|---|---|
| 2026-05-03 20:15 | 17.69105 | 132.12049 | 34960 ft | 486 kts | 165° |
| 2026-05-03 20:15 | 17.62659 | 132.14186 | 34959 ft | 486 kts | 165° |
| 2026-05-03 20:16 | 17.56210 | 132.16323 | 34954 ft | 486 kts | 165° |
| 2026-05-03 20:16 | 17.49761 | 132.18458 | 34952 ft | 486 kts | 166° |
| 2026-05-03 20:17 | 17.43306 | 132.20594 | 34957 ft | 487 kts | 166° |
| 2026-05-03 20:17 | 17.36843 | 132.22730 | 34957 ft | 487 kts | 166° |
| 2026-05-03 20:18 | 17.30387 | 132.24863 | 34956 ft | 487 kts | 166° |
| 2026-05-03 20:18 | 17.23920 | 132.26998 | 34948 ft | 487 kts | 166° |
| 2026-05-03 20:19 | 17.17502 | 132.29115 | 34957 ft | 487 kts | 166° |
| 2026-05-03 20:19 | 17.10994 | 132.31260 | 34954 ft | 487 kts | 166° |
| 2026-05-03 20:20 | 17.04562 | 132.33378 | 34950 ft | 488 kts | 166° |
| 2026-05-03 20:20 | 16.98093 | 132.35508 | 34945 ft | 488 kts | 166° |
| 2026-05-03 20:21 | 16.91616 | 132.37638 | 34951 ft | 488 kts | 166° |
| 2026-05-03 20:21 | 16.85133 | 132.39768 | 34952 ft | 489 kts | 166° |
| 2026-05-03 20:22 | 16.78646 | 132.41899 | 34946 ft | 489 kts | 166° |
| 2026-05-03 20:22 | 16.72147 | 132.44032 | 34953 ft | 490 kts | 166° |
| 2026-05-03 20:23 | 16.66700 | 132.45818 | 34950 ft | 490 kts | 166° |
| 2026-05-03 20:23 | 16.60194 | 132.47951 | 34948 ft | 490 kts | 166° |
| 2026-05-03 20:24 | 16.53721 | 132.50071 | 34946 ft | 491 kts | 166° |
| 2026-05-03 20:24 | 16.47214 | 132.52201 | 34948 ft | 490 kts | 166° |
| 2026-05-03 20:25 | 16.40698 | 132.54332 | 34939 ft | 490 kts | 166° |
| 2026-05-03 20:25 | 16.34187 | 132.56460 | 34951 ft | 491 kts | 166° |
| 2026-05-03 20:26 | 16.27673 | 132.58587 | 34950 ft | 491 kts | 166° |
| 2026-05-03 20:26 | 16.21159 | 132.60713 | 34948 ft | 491 kts | 166° |
| 2026-05-03 20:27 | 16.14628 | 132.62843 | 34944 ft | 491 kts | 166° |
| 2026-05-03 20:27 | 16.08102 | 132.64970 | 34941 ft | 492 kts | 166° |
| 2026-05-03 20:28 | 16.01568 | 132.67099 | 34946 ft | 492 kts | 166° |
| 2026-05-03 20:28 | 15.95027 | 132.69228 | 34939 ft | 493 kts | 166° |
| 2026-05-03 20:29 | 15.88479 | 132.71358 | 34946 ft | 493 kts | 166° |
| 2026-05-03 20:29 | 15.81930 | 132.73486 | 34937 ft | 493 kts | 166° |
| 2026-05-03 20:30 | 15.75377 | 132.75615 | 34940 ft | 493 kts | 166° |
| 2026-05-03 20:30 | 15.68827 | 132.77741 | 34943 ft | 493 kts | 166° |
| 2026-05-03 20:31 | 15.62282 | 132.79864 | 34941 ft | 493 kts | 166° |
| 2026-05-03 20:31 | 15.55739 | 132.81985 | 34932 ft | 493 kts | 165° |
| 2026-05-03 20:32 | 15.49197 | 132.84104 | 34934 ft | 492 kts | 165° |
| 2026-05-03 20:32 | 15.42652 | 132.86223 | 34937 ft | 492 kts | 165° |
| 2026-05-03 20:33 | 15.36120 | 132.88337 | 34936 ft | 492 kts | 165° |
| 2026-05-03 20:33 | 15.29581 | 132.90451 | 34937 ft | 492 kts | 165° |
| 2026-05-03 20:34 | 15.23083 | 132.92551 | 34937 ft | 492 kts | 165° |
| 2026-05-03 20:34 | 15.16548 | 132.94661 | 34938 ft | 492 kts | 165° |
| 2026-05-03 20:35 | 15.10005 | 132.96772 | 34934 ft | 492 kts | 165° |
| 2026-05-03 20:35 | 15.03467 | 132.98881 | 34931 ft | 492 kts | 165° |
| 2026-05-03 20:36 | 14.96933 | 133.01009 | 34934 ft | 493 kts | 164° |
| 2026-05-03 20:36 | 14.90419 | 133.03235 | 34926 ft | 493 kts | 164° |
| 2026-05-03 20:37 | 14.83916 | 133.05479 | 34927 ft | 493 kts | 164° |
| 2026-05-03 20:37 | 14.77401 | 133.07714 | 34926 ft | 493 kts | 164° |
| 2026-05-03 20:38 | 14.70886 | 133.09938 | 34923 ft | 493 kts | 164° |
| 2026-05-03 20:38 | 14.64363 | 133.12160 | 34927 ft | 493 kts | 164° |
| 2026-05-03 20:39 | 14.57845 | 133.14380 | 34924 ft | 494 kts | 164° |
| 2026-05-03 20:39 | 14.51317 | 133.16601 | 34924 ft | 494 kts | 164° |
| 2026-05-03 20:40 | 14.44788 | 133.18822 | 34920 ft | 494 kts | 164° |
| 2026-05-03 20:40 | 14.38307 | 133.21026 | 34919 ft | 494 kts | 163° |
| 2026-05-03 20:41 | 14.31740 | 133.23258 | 34925 ft | 494 kts | 164° |
| 2026-05-03 20:41 | 14.25247 | 133.25461 | 34918 ft | 494 kts | 164° |
| 2026-05-03 20:42 | 14.18718 | 133.27675 | 34920 ft | 494 kts | 164° |
| 2026-05-03 20:42 | 14.12178 | 133.29895 | 34917 ft | 495 kts | 164° |
| 2026-05-03 20:43 | 14.05641 | 133.32110 | 34918 ft | 495 kts | 164° |
| 2026-05-03 20:43 | 13.99106 | 133.34325 | 34918 ft | 495 kts | 164° |
| 2026-05-03 20:44 | 13.92560 | 133.36536 | 34914 ft | 495 kts | 164° |
| 2026-05-03 20:44 | 13.86014 | 133.38755 | 34914 ft | 495 kts | 165° |
| 2026-05-03 20:45 | 13.79470 | 133.40962 | 34914 ft | 495 kts | 164° |
| 2026-05-03 20:45 | 13.72934 | 133.43175 | 34910 ft | 495 kts | 163° |
| 2026-05-03 20:46 | 13.66392 | 133.45387 | 34913 ft | 494 kts | 163° |
| 2026-05-03 20:46 | 13.59865 | 133.47591 | 34914 ft | 494 kts | 164° |
| 2026-05-03 20:47 | 13.53333 | 133.49798 | 34912 ft | 493 kts | 164° |
| 2026-05-03 20:47 | 13.46818 | 133.51988 | 34910 ft | 492 kts | 164° |
| 2026-05-03 20:48 | 13.40311 | 133.54181 | 34906 ft | 492 kts | 164° |
| 2026-05-03 20:48 | 13.33803 | 133.56379 | 34912 ft | 492 kts | 164° |
| 2026-05-03 20:49 | 13.27306 | 133.58563 | 34918 ft | 491 kts | 164° |
| 2026-05-03 20:49 | 13.20823 | 133.60742 | 34911 ft | 490 kts | 164° |
| 2026-05-03 20:50 | 13.14339 | 133.62914 | 34899 ft | 489 kts | 163° |
| 2026-05-03 20:50 | 13.07886 | 133.65086 | 34909 ft | 488 kts | 164° |
| 2026-05-03 20:51 | 13.01447 | 133.67258 | 34908 ft | 486 kts | 164° |
| 2026-05-03 20:51 | 12.95022 | 133.69402 | 34905 ft | 485 kts | 163° |
| 2026-05-03 20:52 | 12.88625 | 133.71553 | 34907 ft | 484 kts | 164° |
| 2026-05-03 20:52 | 12.82233 | 133.73699 | 34906 ft | 483 kts | 163° |
| 2026-05-03 20:53 | 12.75844 | 133.75840 | 34900 ft | 483 kts | 163° |
| 2026-05-03 20:53 | 12.69465 | 133.77981 | 34911 ft | 482 kts | 164° |
| 2026-05-03 20:54 | 12.63083 | 133.80116 | 34909 ft | 482 kts | 165° |
| 2026-05-03 20:54 | 12.53533 | 133.83313 | 34900 ft | 482 kts | 163° |
| 2026-05-03 20:55 | 12.47163 | 133.85450 | 34896 ft | 482 kts | 163° |
| 2026-05-03 20:55 | 12.40789 | 133.87578 | 34901 ft | 481 kts | 164° |
| 2026-05-03 20:56 | 12.34429 | 133.89692 | 34898 ft | 481 kts | 164° |
| 2026-05-03 20:56 | 12.28079 | 133.91809 | 34898 ft | 480 kts | 164° |
| 2026-05-03 20:57 | 12.21735 | 133.93923 | 34893 ft | 479 kts | 164° |
| 2026-05-03 20:57 | 12.15390 | 133.96044 | 34901 ft | 480 kts | 163° |
| 2026-05-03 20:58 | 12.09042 | 133.98162 | 34891 ft | 481 kts | 163° |
| 2026-05-03 20:58 | 12.02721 | 134.00266 | 34894 ft | 481 kts | 161° |
| 2026-05-03 20:59 | 11.96368 | 134.02428 | 34894 ft | 481 kts | 164° |
| 2026-05-03 20:59 | 11.90014 | 134.04563 | 34901 ft | 481 kts | 164° |
| 2026-05-03 21:00 | 11.85741 | 134.05951 | 34889 ft | 481 kts | 163° |
| 2026-05-03 21:00 | 11.77250 | 134.08738 | 34892 ft | 482 kts | 163° |
| 2026-05-03 21:01 | 11.70863 | 134.10858 | 34894 ft | 483 kts | 163° |
| 2026-05-03 21:01 | 11.64463 | 134.12984 | 34892 ft | 484 kts | 163° |
| 2026-05-03 21:02 | 11.58066 | 134.15109 | 34889 ft | 484 kts | 163° |
| 2026-05-03 21:02 | 11.51667 | 134.17235 | 34889 ft | 484 kts | 163° |
| 2026-05-03 21:03 | 11.45272 | 134.19353 | 34886 ft | 483 kts | 163° |
| 2026-05-03 21:03 | 11.38881 | 134.21472 | 34893 ft | 483 kts | 162° |
| 2026-05-03 21:04 | 11.32515 | 134.23654 | 34896 ft | 481 kts | 163° |
| 2026-05-03 21:04 | 11.26158 | 134.25714 | 34885 ft | 479 kts | 161° |
| 2026-05-03 21:05 | 11.19857 | 134.27878 | 34885 ft | 476 kts | 163° |
| 2026-05-03 21:05 | 11.13528 | 134.29874 | 34883 ft | 476 kts | 163° |
| 2026-05-03 21:06 | 11.07206 | 134.31947 | 34889 ft | 478 kts | 163° |
| 2026-05-03 21:06 | 11.01940 | 134.33697 | 34888 ft | 480 kts | 163° |
| 2026-05-03 21:07 | 10.94502 | 134.36158 | 34888 ft | 482 kts | 163° |
| 2026-05-03 21:07 | 10.89196 | 134.37921 | 34888 ft | 483 kts | 162° |
| 2026-05-03 21:08 | 10.81746 | 134.40402 | 34884 ft | 481 kts | 163° |
| 2026-05-03 21:08 | 10.76458 | 134.42125 | 34883 ft | 479 kts | 163° |
| 2026-05-03 21:09 | 10.70143 | 134.44195 | 34881 ft | 475 kts | 162° |
| 2026-05-03 21:09 | 10.63869 | 134.46264 | 34879 ft | 473 kts | 162° |
| 2026-05-03 21:10 | 10.57624 | 134.48324 | 34882 ft | 471 kts | 162° |
| 2026-05-03 21:10 | 10.51386 | 134.50375 | 34879 ft | 472 kts | 162° |
| 2026-05-03 21:11 | 10.45166 | 134.52427 | 34895 ft | 475 kts | 162° |
| 2026-05-03 21:11 | 10.38860 | 134.54503 | 34879 ft | 478 kts | 162° |
| 2026-05-03 21:12 | 10.32514 | 134.56591 | 34881 ft | 481 kts | 162° |
| 2026-05-03 21:12 | 10.26146 | 134.58685 | 34885 ft | 482 kts | 162° |
| 2026-05-03 21:13 | 10.19761 | 134.60784 | 34880 ft | 482 kts | 162° |
| 2026-05-03 21:13 | 10.13380 | 134.62880 | 34882 ft | 481 kts | 161° |
| 2026-05-03 21:14 | 10.07019 | 134.64970 | 34881 ft | 480 kts | 161° |
| 2026-05-03 21:14 | 10.00675 | 134.67053 | 34876 ft | 479 kts | 161° |
| 2026-05-03 21:15 | 9.94335 | 134.69134 | 34880 ft | 478 kts | 161° |
| 2026-05-03 21:15 | 9.88006 | 134.71210 | 34875 ft | 478 kts | 161° |
| 2026-05-03 21:16 | 9.81683 | 134.73283 | 34888 ft | 478 kts | 161° |
| 2026-05-03 21:16 | 9.75349 | 134.75360 | 34878 ft | 478 kts | 161° |
| 2026-05-03 21:17 | 9.70090 | 134.77082 | 34876 ft | 478 kts | 161° |
| 2026-05-03 21:17 | 9.62694 | 134.79504 | 34874 ft | 478 kts | 161° |
| 2026-05-03 21:18 | 9.56363 | 134.81578 | 34882 ft | 478 kts | 161° |
| 2026-05-03 21:18 | 9.50025 | 134.83653 | 34875 ft | 479 kts | 161° |
| 2026-05-03 21:19 | 9.43689 | 134.85726 | 34880 ft | 479 kts | 161° |
| 2026-05-03 21:19 | 9.37335 | 134.87799 | 34878 ft | 481 kts | 161° |
| 2026-05-03 21:20 | 9.30959 | 134.89888 | 34892 ft | 482 kts | 160° |
| 2026-05-03 21:20 | 9.24562 | 134.91978 | 34875 ft | 484 kts | 161° |
| 2026-05-03 21:21 | 9.18145 | 134.94073 | 34881 ft | 485 kts | 160° |
| 2026-05-03 21:21 | 9.11737 | 134.96170 | 34871 ft | 484 kts | 161° |
| 2026-05-03 21:22 | 9.05341 | 134.98255 | 34874 ft | 482 kts | 161° |
| 2026-05-03 21:22 | 8.98974 | 135.00339 | 34870 ft | 480 kts | 160° |
| 2026-05-03 21:23 | 8.92686 | 135.02480 | 34880 ft | 480 kts | 161° |
| 2026-05-03 21:23 | 8.86313 | 135.04854 | 34891 ft | 490 kts | 158° |
| 2026-05-03 21:24 | 8.79954 | 135.07327 | 34871 ft | 489 kts | 159° |
| 2026-05-03 21:24 | 8.73573 | 135.09730 | 34874 ft | 488 kts | 159° |
| 2026-05-03 21:25 | 8.67241 | 135.12063 | 34872 ft | 487 kts | 159° |
| 2026-05-03 21:25 | 8.60882 | 135.14393 | 34874 ft | 486 kts | 159° |
| 2026-05-03 21:26 | 8.54549 | 135.16720 | 34868 ft | 483 kts | 159° |
| 2026-05-03 21:26 | 8.48230 | 135.19032 | 34866 ft | 482 kts | 159° |
| 2026-05-03 21:27 | 8.41937 | 135.21342 | 34871 ft | 481 kts | 159° |
| 2026-05-03 21:27 | 8.35650 | 135.23654 | 34877 ft | 481 kts | 159° |
| 2026-05-03 21:28 | 8.29348 | 135.25968 | 34875 ft | 482 kts | 159° |
| 2026-05-03 21:28 | 8.23039 | 135.28282 | 34880 ft | 483 kts | 159° |
| 2026-05-03 21:29 | 8.16714 | 135.30601 | 34878 ft | 484 kts | 159° |
| 2026-05-03 21:29 | 8.10378 | 135.32923 | 34879 ft | 485 kts | 159° |
| 2026-05-03 21:30 | 8.04021 | 135.35253 | 34876 ft | 486 kts | 159° |
| 2026-05-03 21:30 | 7.97656 | 135.37584 | 34880 ft | 487 kts | 159° |
| 2026-05-03 21:31 | 7.91293 | 135.39916 | 34870 ft | 486 kts | 159° |
| 2026-05-03 21:31 | 7.84940 | 135.42240 | 34868 ft | 485 kts | 160° |
| 2026-05-03 21:32 | 7.78600 | 135.44561 | 34880 ft | 484 kts | 159° |
| 2026-05-03 21:32 | 7.72264 | 135.46875 | 34865 ft | 484 kts | 159° |
| 2026-05-03 21:33 | 7.65944 | 135.49191 | 34873 ft | 484 kts | 159° |
| 2026-05-03 21:33 | 7.59646 | 135.51495 | 34889 ft | 485 kts | 159° |
| 2026-05-03 21:34 | 7.53304 | 135.53813 | 34871 ft | 485 kts | 159° |
| 2026-05-03 21:34 | 7.46962 | 135.56127 | 34889 ft | 485 kts | 159° |
| 2026-05-03 21:35 | 7.40614 | 135.58444 | 34868 ft | 485 kts | 159° |
| 2026-05-03 21:35 | 7.34280 | 135.60757 | 34870 ft | 484 kts | 159° |
| 2026-05-03 21:36 | 7.27946 | 135.63070 | 34876 ft | 484 kts | 159° |
| 2026-05-03 21:36 | 7.21607 | 135.65384 | 34872 ft | 484 kts | 159° |
| 2026-05-03 21:37 | 7.15269 | 135.67696 | 34880 ft | 485 kts | 159° |
| 2026-05-03 21:37 | 7.08915 | 135.70013 | 34871 ft | 486 kts | 159° |
| 2026-05-03 21:38 | 7.02558 | 135.72331 | 34875 ft | 486 kts | 159° |
| 2026-05-03 21:38 | 6.96195 | 135.74650 | 34872 ft | 487 kts | 159° |
| 2026-05-03 21:39 | 6.89820 | 135.76973 | 34876 ft | 487 kts | 159° |
| 2026-05-03 21:39 | 6.83446 | 135.79295 | 34870 ft | 488 kts | 159° |
| 2026-05-03 21:40 | 6.77066 | 135.81619 | 34872 ft | 488 kts | 159° |
| 2026-05-03 21:40 | 6.70682 | 135.83943 | 34878 ft | 488 kts | 159° |
| 2026-05-03 21:41 | 6.64294 | 135.86268 | 34874 ft | 488 kts | 159° |
| 2026-05-03 21:41 | 6.57914 | 135.88589 | 34877 ft | 488 kts | 159° |
| 2026-05-03 21:42 | 6.51530 | 135.90912 | 34872 ft | 487 kts | 159° |
| 2026-05-03 21:42 | 6.45200 | 135.93214 | 34874 ft | 487 kts | 159° |
| 2026-05-03 21:43 | 6.38834 | 135.95529 | 34874 ft | 486 kts | 159° |
| 2026-05-03 21:43 | 6.32467 | 135.97843 | 34867 ft | 486 kts | 159° |
| 2026-05-03 21:44 | 6.26110 | 136.00153 | 34877 ft | 486 kts | 159° |
| 2026-05-03 21:44 | 6.19744 | 136.02466 | 34873 ft | 486 kts | 159° |
| 2026-05-03 21:45 | 6.13386 | 136.04775 | 34872 ft | 486 kts | 159° |
| 2026-05-03 21:45 | 6.07026 | 136.07084 | 34875 ft | 486 kts | 159° |
| 2026-05-03 21:46 | 6.00662 | 136.09395 | 34878 ft | 486 kts | 159° |
| 2026-05-03 21:46 | 5.94303 | 136.11702 | 34875 ft | 486 kts | 159° |
| 2026-05-03 21:47 | 5.87939 | 136.14011 | 34873 ft | 486 kts | 159° |
| 2026-05-03 21:47 | 5.81577 | 136.16319 | 34876 ft | 486 kts | 159° |
| 2026-05-03 21:48 | 5.75214 | 136.18627 | 34883 ft | 486 kts | 159° |
| 2026-05-03 21:48 | 5.68844 | 136.20937 | 34878 ft | 487 kts | 159° |
| 2026-05-03 21:49 | 5.62477 | 136.23244 | 34875 ft | 487 kts | 159° |
| 2026-05-03 21:49 | 5.56108 | 136.25553 | 34877 ft | 487 kts | 159° |
| 2026-05-03 21:50 | 5.49734 | 136.27862 | 34877 ft | 487 kts | 159° |
| 2026-05-03 21:50 | 5.43364 | 136.30170 | 34873 ft | 487 kts | 159° |
| 2026-05-03 21:51 | 5.36991 | 136.32478 | 34880 ft | 487 kts | 159° |
| 2026-05-03 21:51 | 5.30621 | 136.34784 | 34877 ft | 487 kts | 159° |
| 2026-05-03 21:52 | 5.24242 | 136.37093 | 34881 ft | 487 kts | 159° |
| 2026-05-03 21:52 | 5.17867 | 136.39401 | 34882 ft | 487 kts | 159° |
| 2026-05-03 21:53 | 5.11490 | 136.41708 | 34877 ft | 487 kts | 159° |
| 2026-05-03 21:53 | 5.05109 | 136.44017 | 34881 ft | 488 kts | 159° |
| 2026-05-03 21:54 | 4.99800 | 136.45937 | 34882 ft | 488 kts | 159° |
| 2026-05-03 21:54 | 4.93417 | 136.48245 | 34881 ft | 488 kts | 159° |
| 2026-05-03 21:55 | 4.87023 | 136.50557 | 34881 ft | 488 kts | 159° |
| 2026-05-03 21:55 | 4.79600 | 136.53240 | 34882 ft | 488 kts | 159° |
| 2026-05-03 21:56 | 4.74240 | 136.55177 | 34886 ft | 488 kts | 159° |
| 2026-05-03 21:56 | 4.67848 | 136.57487 | 34875 ft | 489 kts | 159° |
| 2026-05-03 21:57 | 4.61447 | 136.59799 | 34886 ft | 489 kts | 159° |
| 2026-05-03 21:57 | 4.55053 | 136.62109 | 34886 ft | 489 kts | 159° |
| 2026-05-03 21:58 | 4.48656 | 136.64419 | 34881 ft | 489 kts | 159° |
| 2026-05-03 21:58 | 4.42253 | 136.66731 | 34885 ft | 489 kts | 160° |
| 2026-05-03 21:59 | 4.35899 | 136.69025 | 34882 ft | 489 kts | 160° |
| 2026-05-03 21:59 | 4.29504 | 136.71334 | 34881 ft | 488 kts | 160° |
| 2026-05-03 22:00 | 4.23109 | 136.73641 | 34881 ft | 488 kts | 160° |
| 2026-05-03 22:00 | 4.16724 | 136.75945 | 34885 ft | 488 kts | 160° |
| 2026-05-03 22:01 | 4.10333 | 136.78251 | 34888 ft | 487 kts | 160° |
| 2026-05-03 22:01 | 4.03965 | 136.80547 | 34886 ft | 487 kts | 160° |
| 2026-05-03 22:02 | 3.97593 | 136.82845 | 34887 ft | 486 kts | 160° |
| 2026-05-03 22:02 | 3.91235 | 136.85138 | 34886 ft | 486 kts | 160° |
| 2026-05-03 22:03 | 3.84874 | 136.87431 | 34886 ft | 485 kts | 160° |
| 2026-05-03 22:03 | 3.78525 | 136.89720 | 34885 ft | 485 kts | 160° |
| 2026-05-03 22:04 | 3.72167 | 136.92011 | 34890 ft | 486 kts | 160° |
| 2026-05-03 22:04 | 3.65812 | 136.94301 | 34890 ft | 486 kts | 160° |
| 2026-05-03 22:05 | 3.59449 | 136.96595 | 34884 ft | 486 kts | 160° |
| 2026-05-03 22:05 | 3.53086 | 136.98887 | 34892 ft | 486 kts | 159° |
| 2026-05-03 22:06 | 3.46783 | 137.01369 | 34960 ft | 489 kts | 156° |
| 2026-05-03 22:06 | 3.43675 | 137.02753 | 35278 ft | 488 kts | 155° |
| 2026-05-03 22:06 | 3.40602 | 137.04138 | 35766 ft | 483 kts | 155° |
| 2026-05-03 22:07 | 3.37534 | 137.05523 | 36081 ft | 483 kts | 155° |
| 2026-05-03 22:07 | 3.34480 | 137.06899 | 36419 ft | 482 kts | 155° |
| 2026-05-03 22:07 | 3.31431 | 137.08267 | 36755 ft | 480 kts | 155° |
| 2026-05-03 22:07 | 3.28376 | 137.09633 | 36897 ft | 482 kts | 155° |
| 2026-05-03 22:08 | 3.22232 | 137.12372 | 36884 ft | 482 kts | 155° |
| 2026-05-03 22:08 | 3.16129 | 137.15090 | 36881 ft | 479 kts | 155° |
| 2026-05-03 22:09 | 3.10059 | 137.17792 | 36885 ft | 477 kts | 155° |
| 2026-05-03 22:10 | 3.00981 | 137.21835 | 36892 ft | 476 kts | 155° |
| 2026-05-03 22:10 | 2.94927 | 137.24531 | 36892 ft | 477 kts | 155° |
| 2026-05-03 22:11 | 2.88861 | 137.27231 | 36890 ft | 478 kts | 155° |
| 2026-05-03 22:11 | 2.82782 | 137.29938 | 36891 ft | 479 kts | 155° |
| 2026-05-03 22:12 | 2.76723 | 137.32635 | 36895 ft | 480 kts | 155° |
| 2026-05-03 22:12 | 2.70617 | 137.35352 | 36890 ft | 481 kts | 155° |
| 2026-05-03 22:13 | 2.64501 | 137.38074 | 36889 ft | 481 kts | 155° |
| 2026-05-03 22:13 | 2.58377 | 137.40799 | 36891 ft | 481 kts | 155° |
| 2026-05-03 22:14 | 2.52256 | 137.43523 | 36891 ft | 481 kts | 155° |
| 2026-05-03 22:14 | 2.46139 | 137.46244 | 36890 ft | 481 kts | 155° |
| 2026-05-03 22:15 | 2.40030 | 137.48961 | 36893 ft | 481 kts | 155° |
| 2026-05-03 22:15 | 2.33925 | 137.51677 | 36890 ft | 480 kts | 155° |
| 2026-05-03 22:16 | 2.27820 | 137.54392 | 36895 ft | 480 kts | 155° |
| 2026-05-03 22:16 | 2.21725 | 137.57103 | 36889 ft | 479 kts | 155° |
| 2026-05-03 22:17 | 2.15629 | 137.59813 | 36892 ft | 479 kts | 155° |
| 2026-05-03 22:17 | 2.09537 | 137.62522 | 36894 ft | 479 kts | 155° |
| 2026-05-03 22:18 | 2.03449 | 137.65229 | 36896 ft | 480 kts | 155° |
| 2026-05-03 22:18 | 1.97344 | 137.67943 | 36898 ft | 480 kts | 155° |
| 2026-05-03 22:19 | 1.91241 | 137.70656 | 36900 ft | 480 kts | 155° |
| 2026-05-03 22:19 | 1.85137 | 137.73369 | 36898 ft | 480 kts | 155° |
| 2026-05-03 22:20 | 1.79031 | 137.76083 | 36899 ft | 480 kts | 155° |
| 2026-05-03 22:20 | 1.72921 | 137.78798 | 36897 ft | 480 kts | 155° |
| 2026-05-03 22:21 | 1.66814 | 137.81512 | 36896 ft | 480 kts | 155° |
| 2026-05-03 22:21 | 1.60749 | 137.84207 | 36896 ft | 480 kts | 155° |
| 2026-05-03 22:22 | 1.54641 | 137.86921 | 36898 ft | 480 kts | 155° |
| 2026-05-03 22:22 | 1.48539 | 137.89632 | 36899 ft | 480 kts | 155° |
| 2026-05-03 22:23 | 1.42438 | 137.92343 | 36897 ft | 480 kts | 155° |
| 2026-05-03 22:23 | 1.36334 | 137.95054 | 36896 ft | 480 kts | 155° |
| 2026-05-03 22:24 | 1.30234 | 137.97764 | 36895 ft | 480 kts | 155° |
| 2026-05-03 22:24 | 1.24125 | 138.00478 | 36896 ft | 480 kts | 155° |
| 2026-05-03 22:25 | 1.18020 | 138.03190 | 36895 ft | 480 kts | 155° |
| 2026-05-03 22:25 | 1.11921 | 138.05899 | 36899 ft | 480 kts | 155° |
| 2026-05-03 22:26 | 1.05813 | 138.08611 | 36899 ft | 480 kts | 155° |
| 2026-05-03 22:26 | 0.99712 | 138.11321 | 36899 ft | 480 kts | 155° |
| 2026-05-03 22:27 | 0.93611 | 138.14030 | 36898 ft | 480 kts | 155° |
| 2026-05-03 22:27 | 0.87505 | 138.16742 | 36897 ft | 480 kts | 155° |
| 2026-05-03 22:28 | 0.81408 | 138.19449 | 36897 ft | 480 kts | 155° |
| 2026-05-03 22:28 | 0.75311 | 138.22157 | 36896 ft | 480 kts | 155° |
| 2026-05-03 22:29 | 0.69210 | 138.24866 | 36899 ft | 479 kts | 155° |
| 2026-05-03 22:29 | 0.63123 | 138.27569 | 36901 ft | 479 kts | 155° |
| 2026-05-03 22:30 | 0.57074 | 138.30255 | 36896 ft | 479 kts | 155° |
| 2026-05-03 22:30 | 0.50952 | 138.32973 | 36898 ft | 479 kts | 155° |
| 2026-05-03 22:31 | 0.44906 | 138.35657 | 36902 ft | 479 kts | 155° |
| 2026-05-03 22:31 | 0.38818 | 138.38360 | 36899 ft | 479 kts | 155° |
| 2026-05-03 22:32 | 0.32725 | 138.41065 | 36907 ft | 479 kts | 155° |
| 2026-05-03 22:32 | 0.26633 | 138.43770 | 36905 ft | 479 kts | 155° |
| 2026-05-03 22:33 | 0.20535 | 138.46478 | 36900 ft | 480 kts | 155° |
| 2026-05-03 22:33 | 0.14440 | 138.49183 | 36902 ft | 480 kts | 155° |
| 2026-05-03 22:34 | 0.08334 | 138.51894 | 36902 ft | 480 kts | 155° |
| 2026-05-03 22:34 | 0.02234 | 138.54603 | 36902 ft | 480 kts | 155° |
| 2026-05-03 22:35 | -0.03867 | 138.57311 | 36899 ft | 480 kts | 155° |
| 2026-05-03 22:35 | -0.09975 | 138.60023 | 36905 ft | 480 kts | 155° |
| 2026-05-03 22:36 | -0.16082 | 138.62734 | 36902 ft | 480 kts | 155° |
| 2026-05-03 22:36 | -0.22190 | 138.65446 | 36902 ft | 481 kts | 155° |
| 2026-05-03 22:37 | -0.28303 | 138.68160 | 36901 ft | 481 kts | 155° |
| 2026-05-03 22:37 | -0.34424 | 138.70878 | 36900 ft | 481 kts | 155° |
| 2026-05-03 22:38 | -0.40542 | 138.73594 | 36911 ft | 481 kts | 155° |
| 2026-05-03 22:38 | -0.46666 | 138.76313 | 36909 ft | 482 kts | 155° |
| 2026-05-03 22:39 | -0.52795 | 138.79034 | 36902 ft | 482 kts | 155° |
| 2026-05-03 22:39 | -0.57884 | 138.81294 | 36913 ft | 482 kts | 155° |
| 2026-05-03 22:40 | -0.65045 | 138.84474 | 36907 ft | 482 kts | 155° |
| 2026-05-03 22:40 | -0.70134 | 138.86734 | 36913 ft | 482 kts | 155° |
| 2026-05-03 22:41 | -0.76261 | 138.89455 | 36910 ft | 482 kts | 155° |
| 2026-05-03 22:41 | -0.82382 | 138.92173 | 36911 ft | 482 kts | 155° |
| 2026-05-03 22:42 | -0.88503 | 138.94892 | 36916 ft | 482 kts | 155° |
| 2026-05-03 22:42 | -0.94633 | 138.97615 | 36912 ft | 482 kts | 155° |
| 2026-05-03 22:43 | -1.00751 | 139.00335 | 36910 ft | 481 kts | 154° |
| 2026-05-03 22:43 | -1.06769 | 139.03259 | 36913 ft | 481 kts | 152° |
| 2026-05-03 22:44 | -1.12732 | 139.06303 | 36912 ft | 481 kts | 152° |
| 2026-05-03 22:44 | -1.18697 | 139.09327 | 36920 ft | 481 kts | 152° |
| 2026-05-03 22:45 | -1.24680 | 139.12327 | 36916 ft | 481 kts | 152° |
| 2026-05-03 22:45 | -1.30673 | 139.15319 | 36916 ft | 481 kts | 153° |
| 2026-05-03 22:46 | -1.36662 | 139.18308 | 36918 ft | 481 kts | 153° |
| 2026-05-03 22:46 | -1.42650 | 139.21298 | 36921 ft | 481 kts | 153° |
| 2026-05-03 22:47 | -1.48605 | 139.24274 | 36911 ft | 482 kts | 152° |
| 2026-05-03 22:47 | -1.54603 | 139.27271 | 36923 ft | 482 kts | 152° |
| 2026-05-03 22:48 | -1.60604 | 139.30270 | 36925 ft | 483 kts | 152° |
| 2026-05-03 22:48 | -1.66617 | 139.33274 | 36917 ft | 483 kts | 152° |
| 2026-05-03 22:49 | -1.72631 | 139.36280 | 36921 ft | 484 kts | 152° |
| 2026-05-03 22:49 | -1.78657 | 139.39292 | 36919 ft | 484 kts | 152° |
| 2026-05-03 22:50 | -1.84677 | 139.42300 | 36922 ft | 484 kts | 152° |
| 2026-05-03 22:50 | -1.90705 | 139.45314 | 36926 ft | 484 kts | 152° |
| 2026-05-03 22:51 | -1.96733 | 139.48327 | 36926 ft | 484 kts | 152° |
| 2026-05-03 22:51 | -2.02758 | 139.51340 | 36923 ft | 484 kts | 152° |
| 2026-05-03 22:52 | -2.08782 | 139.54351 | 36928 ft | 484 kts | 152° |
| 2026-05-03 22:52 | -2.14800 | 139.57361 | 36924 ft | 483 kts | 152° |
| 2026-05-03 22:53 | -2.20813 | 139.60367 | 36924 ft | 483 kts | 152° |
| 2026-05-03 22:53 | -2.26821 | 139.63372 | 36923 ft | 482 kts | 152° |
| 2026-05-03 22:54 | -2.32821 | 139.66373 | 36928 ft | 482 kts | 152° |
| 2026-05-03 22:54 | -2.38819 | 139.69373 | 36924 ft | 482 kts | 152° |
| 2026-05-03 22:55 | -2.44825 | 139.72378 | 36920 ft | 482 kts | 152° |
| 2026-05-03 22:55 | -2.50824 | 139.75380 | 36919 ft | 483 kts | 153° |
| 2026-05-03 22:56 | -2.56831 | 139.78386 | 36925 ft | 483 kts | 153° |
| 2026-05-03 22:56 | -2.62835 | 139.81390 | 36914 ft | 483 kts | 153° |
| 2026-05-03 22:57 | -2.68843 | 139.84397 | 36923 ft | 483 kts | 153° |
| 2026-05-03 22:57 | -2.74854 | 139.87406 | 36921 ft | 483 kts | 153° |
| 2026-05-03 22:58 | -2.80864 | 139.90415 | 36914 ft | 483 kts | 153° |
| 2026-05-03 22:58 | -2.86870 | 139.93422 | 36922 ft | 482 kts | 153° |
| 2026-05-03 22:59 | -2.92865 | 139.96425 | 36924 ft | 482 kts | 152° |
| 2026-05-03 22:59 | -2.98859 | 139.99427 | 36924 ft | 481 kts | 152° |
| 2026-05-03 23:00 | -3.04838 | 140.02438 | 36918 ft | 481 kts | 152° |
| 2026-05-03 23:00 | -3.10805 | 140.05468 | 36925 ft | 480 kts | 152° |
| 2026-05-03 23:01 | -3.16755 | 140.08492 | 36923 ft | 480 kts | 152° |
| 2026-05-03 23:01 | -3.22709 | 140.11514 | 36922 ft | 480 kts | 152° |
| 2026-05-03 23:02 | -3.28626 | 140.14516 | 36924 ft | 480 kts | 152° |
| 2026-05-03 23:02 | -3.34573 | 140.17534 | 36924 ft | 479 kts | 152° |
| 2026-05-03 23:03 | -3.40523 | 140.20554 | 36927 ft | 479 kts | 152° |
| 2026-05-03 23:03 | -3.46472 | 140.23574 | 36924 ft | 480 kts | 152° |
| 2026-05-03 23:04 | -3.52428 | 140.26598 | 36925 ft | 480 kts | 152° |
| 2026-05-03 23:04 | -3.58384 | 140.29622 | 36929 ft | 480 kts | 152° |
| 2026-05-03 23:05 | -3.64344 | 140.32649 | 36934 ft | 481 kts | 152° |
| 2026-05-03 23:05 | -3.70312 | 140.35681 | 36935 ft | 481 kts | 152° |
| 2026-05-03 23:06 | -3.76282 | 140.38713 | 36940 ft | 481 kts | 152° |
| 2026-05-03 23:06 | -3.82256 | 140.41748 | 36935 ft | 482 kts | 152° |
| 2026-05-03 23:07 | -3.88236 | 140.44787 | 36947 ft | 482 kts | 152° |
| 2026-05-03 23:07 | -3.94211 | 140.47824 | 36947 ft | 482 kts | 152° |
| 2026-05-03 23:08 | -4.00194 | 140.50865 | 36948 ft | 482 kts | 152° |
| 2026-05-03 23:08 | -4.06175 | 140.53906 | 36951 ft | 482 kts | 152° |
| 2026-05-03 23:09 | -4.12154 | 140.56946 | 36952 ft | 482 kts | 152° |
| 2026-05-03 23:09 | -4.18131 | 140.59986 | 36977 ft | 482 kts | 152° |
| 2026-05-03 23:10 | -4.24112 | 140.63028 | 36960 ft | 482 kts | 152° |
| 2026-05-03 23:10 | -4.30101 | 140.66075 | 36968 ft | 482 kts | 152° |
| 2026-05-03 23:11 | -4.36092 | 140.69123 | 36970 ft | 483 kts | 152° |
| 2026-05-03 23:11 | -4.42079 | 140.72171 | 36982 ft | 482 kts | 152° |
| 2026-05-03 23:12 | -4.48053 | 140.75212 | 36991 ft | 481 kts | 151° |
| 2026-05-03 23:12 | -4.54015 | 140.78247 | 37015 ft | 480 kts | 151° |
| 2026-05-03 23:13 | -4.59967 | 140.81277 | 37001 ft | 480 kts | 151° |
| 2026-05-03 23:13 | -4.65921 | 140.84311 | 37017 ft | 480 kts | 151° |
| 2026-05-03 23:14 | -4.71877 | 140.87345 | 37023 ft | 480 kts | 151° |
| 2026-05-03 23:14 | -4.77827 | 140.90377 | 37026 ft | 480 kts | 151° |
| 2026-05-03 23:15 | -4.83747 | 140.93395 | 37027 ft | 481 kts | 152° |
| 2026-05-03 23:15 | -4.89704 | 140.96432 | 37037 ft | 481 kts | 151° |
| 2026-05-03 23:16 | -4.95681 | 140.99447 | 37036 ft | 481 kts | 154° |
| 2026-05-03 23:16 | -5.01992 | 141.01722 | 37056 ft | 483 kts | 161° |
| 2026-05-03 23:17 | -5.08443 | 141.03634 | 37038 ft | 484 kts | 162° |
| 2026-05-03 23:17 | -5.14892 | 141.05557 | 37018 ft | 484 kts | 161° |
| 2026-05-03 23:18 | -5.21350 | 141.07513 | 37038 ft | 485 kts | 161° |
| 2026-05-03 23:18 | -5.27811 | 141.09484 | 37027 ft | 485 kts | 161° |
| 2026-05-03 23:19 | -5.34280 | 141.11461 | 36980 ft | 487 kts | 161° |
| 2026-05-03 23:19 | -5.40758 | 141.13441 | 36980 ft | 487 kts | 161° |
| 2026-05-03 23:20 | -5.47241 | 141.15421 | 36962 ft | 487 kts | 161° |
| 2026-05-03 23:20 | -5.53718 | 141.17398 | 36973 ft | 486 kts | 162° |
| 2026-05-03 23:21 | -5.60197 | 141.19377 | 36954 ft | 486 kts | 161° |
| 2026-05-03 23:21 | -5.66663 | 141.21353 | 36958 ft | 486 kts | 161° |
| 2026-05-03 23:22 | -5.76356 | 141.24317 | 36948 ft | 485 kts | 161° |
| 2026-05-03 23:22 | -5.82810 | 141.26290 | 36953 ft | 485 kts | 161° |
| 2026-05-03 23:23 | -5.89271 | 141.28266 | 36945 ft | 485 kts | 161° |
| 2026-05-03 23:23 | -5.95724 | 141.30241 | 36941 ft | 485 kts | 162° |
| 2026-05-03 23:24 | -6.01093 | 141.31884 | 36961 ft | 485 kts | 162° |
| 2026-05-03 23:24 | -6.07558 | 141.33862 | 36949 ft | 486 kts | 162° |
| 2026-05-03 23:25 | -6.14027 | 141.35843 | 36937 ft | 486 kts | 162° |
| 2026-05-03 23:25 | -6.20501 | 141.37825 | 36955 ft | 486 kts | 162° |
| 2026-05-03 23:26 | -6.26978 | 141.39809 | 36944 ft | 487 kts | 162° |
| 2026-05-03 23:26 | -6.33465 | 141.41797 | 36941 ft | 488 kts | 162° |
| 2026-05-03 23:27 | -6.39958 | 141.43787 | 36954 ft | 488 kts | 162° |
| 2026-05-03 23:27 | -6.46452 | 141.45777 | 36953 ft | 488 kts | 162° |
| 2026-05-03 23:28 | -6.52953 | 141.47770 | 36956 ft | 488 kts | 162° |
| 2026-05-03 23:28 | -6.59457 | 141.49765 | 36941 ft | 489 kts | 162° |
| 2026-05-03 23:29 | -6.65960 | 141.51761 | 36944 ft | 489 kts | 162° |
| 2026-05-03 23:29 | -6.72476 | 141.53760 | 36960 ft | 490 kts | 162° |
| 2026-05-03 23:30 | -6.78998 | 141.55762 | 36959 ft | 490 kts | 162° |
| 2026-05-03 23:30 | -6.85530 | 141.57768 | 36963 ft | 491 kts | 162° |
| 2026-05-03 23:31 | -6.92072 | 141.59777 | 36955 ft | 492 kts | 162° |
| 2026-05-03 23:31 | -6.98585 | 141.61778 | 36939 ft | 493 kts | 162° |
| 2026-05-03 23:32 | -7.05143 | 141.63793 | 36956 ft | 493 kts | 162° |
| 2026-05-03 23:32 | -7.11699 | 141.65809 | 36955 ft | 493 kts | 162° |
| 2026-05-03 23:33 | -7.18252 | 141.67824 | 36939 ft | 492 kts | 162° |
| 2026-05-03 23:33 | -7.24805 | 141.69840 | 36954 ft | 492 kts | 162° |
| 2026-05-03 23:34 | -7.31365 | 141.71858 | 36954 ft | 492 kts | 162° |
| 2026-05-03 23:34 | -7.37916 | 141.73874 | 36943 ft | 493 kts | 162° |
| 2026-05-03 23:35 | -7.44472 | 141.75893 | 36959 ft | 493 kts | 162° |
| 2026-05-03 23:35 | -7.51036 | 141.77914 | 36957 ft | 493 kts | 162° |
| 2026-05-03 23:36 | -7.57609 | 141.79939 | 36955 ft | 494 kts | 162° |
| 2026-05-03 23:36 | -7.64177 | 141.81963 | 36957 ft | 494 kts | 162° |
| 2026-05-03 23:37 | -7.70751 | 141.83990 | 36957 ft | 494 kts | 162° |
| 2026-05-03 23:37 | -7.77322 | 141.86016 | 36956 ft | 494 kts | 162° |
| 2026-05-03 23:38 | -7.83860 | 141.88033 | 36963 ft | 494 kts | 162° |
| 2026-05-03 23:38 | -7.90443 | 141.90064 | 36951 ft | 495 kts | 162° |
| 2026-05-03 23:39 | -7.97025 | 141.92096 | 36957 ft | 495 kts | 162° |
| 2026-05-03 23:39 | -8.03616 | 141.94131 | 36955 ft | 495 kts | 162° |
| 2026-05-03 23:40 | -8.10198 | 141.96164 | 36947 ft | 495 kts | 162° |
| 2026-05-03 23:40 | -8.16796 | 141.98203 | 36961 ft | 496 kts | 162° |
| 2026-05-03 23:41 | -8.23397 | 142.00243 | 36960 ft | 496 kts | 162° |
| 2026-05-03 23:41 | -8.29999 | 142.02285 | 36958 ft | 497 kts | 162° |
| 2026-05-03 23:42 | -8.36609 | 142.04329 | 36959 ft | 497 kts | 162° |
| 2026-05-03 23:42 | -8.43226 | 142.06377 | 36960 ft | 497 kts | 162° |
| 2026-05-03 23:43 | -8.49843 | 142.08425 | 36965 ft | 498 kts | 162° |
| 2026-05-03 23:43 | -8.56422 | 142.10462 | 36962 ft | 498 kts | 162° |
| 2026-05-03 23:44 | -8.63044 | 142.12513 | 36964 ft | 498 kts | 162° |
| 2026-05-03 23:44 | -8.69665 | 142.14565 | 36952 ft | 497 kts | 162° |
| 2026-05-03 23:45 | -8.76283 | 142.16617 | 36963 ft | 497 kts | 162° |
| 2026-05-03 23:45 | -8.82894 | 142.18667 | 36967 ft | 497 kts | 162° |
| 2026-05-03 23:46 | -8.89504 | 142.20717 | 36950 ft | 497 kts | 162° |
| 2026-05-03 23:46 | -8.96116 | 142.22770 | 36966 ft | 497 kts | 162° |
| 2026-05-03 23:47 | -9.02723 | 142.24821 | 36968 ft | 497 kts | 162° |
| 2026-05-03 23:47 | -9.09332 | 142.26874 | 36968 ft | 497 kts | 162° |
| 2026-05-03 23:48 | -9.15950 | 142.28930 | 36972 ft | 497 kts | 162° |
| 2026-05-03 23:48 | -9.22562 | 142.30986 | 36967 ft | 497 kts | 162° |
| 2026-05-03 23:49 | -9.29261 | 142.32719 | 36972 ft | 497 kts | 171° |
| 2026-05-03 23:49 | -9.36183 | 142.33223 | 36970 ft | 502 kts | 181° |
| 2026-05-03 23:50 | -9.42005 | 142.33027 | 36968 ft | 505 kts | 182° |
| 2026-05-03 23:50 | -9.50197 | 142.32698 | 36956 ft | 507 kts | 182° |
| 2026-05-03 23:51 | -9.57238 | 142.32455 | 36960 ft | 505 kts | 181° |
| 2026-05-03 23:51 | -9.64292 | 142.32236 | 36976 ft | 502 kts | 181° |
| 2026-05-03 23:52 | -9.71266 | 142.32025 | 36977 ft | 502 kts | 181° |
| 2026-05-03 23:52 | -9.78213 | 142.31812 | 36975 ft | 503 kts | 181° |
| 2026-05-03 23:53 | -9.85209 | 142.31596 | 36973 ft | 504 kts | 181° |
| 2026-05-03 23:53 | -9.92238 | 142.31378 | 36958 ft | 506 kts | 181° |
| 2026-05-03 23:54 | -9.99286 | 142.31159 | 36972 ft | 507 kts | 181° |
| 2026-05-03 23:54 | -10.06345 | 142.30941 | 36976 ft | 508 kts | 181° |
| 2026-05-03 23:55 | -10.13418 | 142.30721 | 36979 ft | 508 kts | 181° |
| 2026-05-03 23:55 | -10.20489 | 142.30502 | 36970 ft | 508 kts | 182° |
| 2026-05-03 23:56 | -10.27554 | 142.30283 | 36983 ft | 508 kts | 182° |
| 2026-05-03 23:56 | -10.34618 | 142.30064 | 36964 ft | 508 kts | 182° |
| 2026-05-03 23:57 | -10.41678 | 142.29845 | 36962 ft | 507 kts | 182° |
| 2026-05-03 23:57 | -10.48730 | 142.29626 | 36970 ft | 507 kts | 182° |
| 2026-05-03 23:58 | -10.55775 | 142.29553 | 36931 ft | 506 kts | 174° |
| 2026-05-03 23:58 | -10.62607 | 142.31154 | 36936 ft | 505 kts | 159° |
| 2026-05-03 23:59 | -10.68876 | 142.34304 | 36938 ft | 503 kts | 150° |
| 2026-05-03 23:59 | -10.75028 | 142.37701 | 36953 ft | 503 kts | 150° |
| 2026-05-04 00:00 | -10.81210 | 142.41076 | 36953 ft | 504 kts | 151° |
| 2026-05-04 00:00 | -10.87419 | 142.44416 | 36970 ft | 506 kts | 152° |
| 2026-05-04 00:01 | -10.93647 | 142.47752 | 36974 ft | 507 kts | 152° |
| 2026-05-04 00:01 | -10.99893 | 142.51098 | 36989 ft | 507 kts | 152° |
| 2026-05-04 00:02 | -11.06136 | 142.54448 | 36970 ft | 508 kts | 152° |
| 2026-05-04 00:02 | -11.12387 | 142.57805 | 36993 ft | 508 kts | 152° |
| 2026-05-04 00:03 | -11.18640 | 142.61164 | 36988 ft | 508 kts | 152° |
| 2026-05-04 00:03 | -11.24891 | 142.64524 | 36974 ft | 508 kts | 152° |
| 2026-05-04 00:04 | -11.31090 | 142.67858 | 36985 ft | 507 kts | 152° |
| 2026-05-04 00:04 | -11.37327 | 142.71214 | 36983 ft | 507 kts | 152° |
| 2026-05-04 00:05 | -11.43552 | 142.74565 | 36987 ft | 506 kts | 152° |
| 2026-05-04 00:05 | -11.49785 | 142.77923 | 36983 ft | 506 kts | 152° |
| 2026-05-04 00:06 | -11.56015 | 142.81280 | 36993 ft | 507 kts | 152° |
| 2026-05-04 00:06 | -11.62252 | 142.84643 | 36990 ft | 507 kts | 152° |
| 2026-05-04 00:07 | -11.68492 | 142.88009 | 36991 ft | 508 kts | 152° |
| 2026-05-04 00:07 | -11.74736 | 142.91379 | 36994 ft | 508 kts | 152° |
| 2026-05-04 00:08 | -11.80982 | 142.94752 | 36992 ft | 508 kts | 152° |
| 2026-05-04 00:08 | -11.87224 | 142.98124 | 36997 ft | 507 kts | 152° |
| 2026-05-04 00:09 | -11.93467 | 143.01498 | 36987 ft | 508 kts | 152° |
| 2026-05-04 00:09 | -11.99711 | 143.04876 | 37002 ft | 508 kts | 152° |
| 2026-05-04 00:10 | -12.05955 | 143.08254 | 36991 ft | 508 kts | 152° |
| 2026-05-04 00:10 | -12.12211 | 143.11641 | 36995 ft | 509 kts | 152° |
| 2026-05-04 00:11 | -12.18470 | 143.15032 | 36996 ft | 509 kts | 152° |
| 2026-05-04 00:11 | -12.24730 | 143.18425 | 36994 ft | 509 kts | 152° |
| 2026-05-04 00:12 | -12.30995 | 143.21822 | 36998 ft | 509 kts | 152° |
| 2026-05-04 00:12 | -12.37208 | 143.25194 | 36995 ft | 509 kts | 152° |
| 2026-05-04 00:13 | -12.43470 | 143.28593 | 37001 ft | 509 kts | 153° |
| 2026-05-04 00:13 | -12.48718 | 143.31443 | 36997 ft | 510 kts | 153° |
| 2026-05-04 00:14 | -12.54974 | 143.34843 | 37010 ft | 509 kts | 153° |
| 2026-05-04 00:14 | -12.61193 | 143.38225 | 37001 ft | 510 kts | 153° |
| 2026-05-04 00:15 | -12.67453 | 143.41633 | 37009 ft | 509 kts | 153° |
| 2026-05-04 00:15 | -12.73712 | 143.45039 | 37003 ft | 509 kts | 153° |
| 2026-05-04 00:16 | -12.79967 | 143.48450 | 37012 ft | 509 kts | 153° |
| 2026-05-04 00:16 | -12.86218 | 143.51864 | 37009 ft | 509 kts | 153° |
| 2026-05-04 00:17 | -12.92467 | 143.55279 | 37007 ft | 509 kts | 153° |
| 2026-05-04 00:17 | -12.98716 | 143.58696 | 37006 ft | 509 kts | 153° |
| 2026-05-04 00:18 | -13.04960 | 143.62112 | 37011 ft | 509 kts | 153° |
| 2026-05-04 00:18 | -13.11204 | 143.65529 | 37011 ft | 509 kts | 153° |
| 2026-05-04 00:19 | -13.17450 | 143.68950 | 37009 ft | 509 kts | 153° |
| 2026-05-04 00:19 | -13.23688 | 143.72368 | 37015 ft | 509 kts | 153° |
| 2026-05-04 00:20 | -13.29940 | 143.75796 | 37012 ft | 509 kts | 153° |
| 2026-05-04 00:20 | -13.36176 | 143.79217 | 37014 ft | 509 kts | 153° |
| 2026-05-04 00:21 | -13.42382 | 143.82624 | 37009 ft | 509 kts | 153° |
| 2026-05-04 00:21 | -13.48625 | 143.86053 | 37015 ft | 509 kts | 153° |
| 2026-05-04 00:22 | -13.54863 | 143.89482 | 37014 ft | 509 kts | 153° |
| 2026-05-04 00:22 | -13.61107 | 143.92915 | 37016 ft | 509 kts | 153° |
| 2026-05-04 00:23 | -13.67345 | 143.96348 | 37016 ft | 509 kts | 153° |
| 2026-05-04 00:23 | -13.73591 | 143.99787 | 37014 ft | 509 kts | 153° |
| 2026-05-04 00:24 | -13.79834 | 144.03226 | 37013 ft | 509 kts | 153° |
| 2026-05-04 00:24 | -13.86076 | 144.06667 | 37016 ft | 509 kts | 153° |
| 2026-05-04 00:25 | -13.92327 | 144.10115 | 37013 ft | 509 kts | 153° |
| 2026-05-04 00:25 | -13.98575 | 144.13564 | 37023 ft | 510 kts | 154° |
| 2026-05-04 00:26 | -14.04827 | 144.17016 | 37012 ft | 510 kts | 154° |
| 2026-05-04 00:26 | -14.11078 | 144.20471 | 37014 ft | 510 kts | 154° |
| 2026-05-04 00:27 | -14.17329 | 144.23928 | 37017 ft | 510 kts | 154° |
| 2026-05-04 00:27 | -14.23584 | 144.27390 | 37013 ft | 510 kts | 153° |
| 2026-05-04 00:28 | -14.29843 | 144.30855 | 37008 ft | 511 kts | 154° |
| 2026-05-04 00:28 | -14.36109 | 144.34327 | 37018 ft | 512 kts | 154° |
| 2026-05-04 00:29 | -14.42388 | 144.37808 | 37018 ft | 513 kts | 154° |
| 2026-05-04 00:29 | -14.48675 | 144.41296 | 37014 ft | 514 kts | 154° |
| 2026-05-04 00:30 | -14.54970 | 144.44791 | 37012 ft | 514 kts | 154° |
| 2026-05-04 00:30 | -14.61274 | 144.48294 | 37017 ft | 514 kts | 153° |
| 2026-05-04 00:31 | -14.67577 | 144.51799 | 37014 ft | 515 kts | 154° |
| 2026-05-04 00:31 | -14.73843 | 144.55290 | 37011 ft | 515 kts | 154° |
| 2026-05-04 00:32 | -14.80136 | 144.58801 | 37014 ft | 514 kts | 153° |
| 2026-05-04 00:32 | -14.86430 | 144.62315 | 37014 ft | 514 kts | 153° |
| 2026-05-04 00:33 | -14.95849 | 144.67578 | 37018 ft | 513 kts | 153° |
| 2026-05-04 00:34 | -15.02131 | 144.71091 | 37015 ft | 513 kts | 153° |
| 2026-05-04 00:34 | -15.08406 | 144.74602 | 37018 ft | 513 kts | 153° |
| 2026-05-04 00:35 | -15.14675 | 144.78112 | 37022 ft | 512 kts | 154° |
| 2026-05-04 00:35 | -15.20945 | 144.81625 | 37022 ft | 512 kts | 153° |
| 2026-05-04 00:36 | -15.27215 | 144.85141 | 37025 ft | 512 kts | 154° |
| 2026-05-04 00:36 | -15.33479 | 144.88657 | 37024 ft | 512 kts | 154° |
| 2026-05-04 00:37 | -15.39735 | 144.92168 | 37023 ft | 512 kts | 154° |
| 2026-05-04 00:37 | -15.45984 | 144.95679 | 37030 ft | 511 kts | 154° |
| 2026-05-04 00:38 | -15.52232 | 144.99192 | 37027 ft | 511 kts | 154° |
| 2026-05-04 00:38 | -15.58485 | 145.02711 | 37031 ft | 511 kts | 154° |
| 2026-05-04 00:39 | -15.64735 | 145.06230 | 37033 ft | 511 kts | 154° |
| 2026-05-04 00:39 | -15.70988 | 145.09753 | 37032 ft | 511 kts | 154° |
| 2026-05-04 00:40 | -15.77242 | 145.13279 | 37038 ft | 511 kts | 154° |
| 2026-05-04 00:40 | -15.83491 | 145.16805 | 37036 ft | 511 kts | 154° |
| 2026-05-04 00:41 | -15.89748 | 145.20338 | 37044 ft | 512 kts | 154° |
| 2026-05-04 00:41 | -15.95965 | 145.23852 | 37045 ft | 512 kts | 154° |
| 2026-05-04 00:42 | -16.02228 | 145.27393 | 37050 ft | 513 kts | 154° |
| 2026-05-04 00:42 | -16.08496 | 145.30941 | 37048 ft | 513 kts | 154° |
| 2026-05-04 00:43 | -16.14771 | 145.34492 | 37078 ft | 515 kts | 154° |
| 2026-05-04 00:43 | -16.17922 | 145.36274 | 37356 ft | 516 kts | 154° |
| 2026-05-04 00:43 | -16.21068 | 145.38055 | 37724 ft | 514 kts | 154° |
| 2026-05-04 00:43 | -16.24203 | 145.39829 | 38108 ft | 513 kts | 154° |
| 2026-05-04 00:44 | -16.27339 | 145.41606 | 38366 ft | 514 kts | 154° |
| 2026-05-04 00:44 | -16.30485 | 145.43390 | 38659 ft | 514 kts | 154° |
| 2026-05-04 00:44 | -16.33625 | 145.45171 | 38934 ft | 513 kts | 154° |
| 2026-05-04 00:45 | -16.39914 | 145.48738 | 39041 ft | 515 kts | 154° |
| 2026-05-04 00:45 | -16.46188 | 145.52301 | 39038 ft | 511 kts | 154° |
| 2026-05-04 00:46 | -16.52414 | 145.55839 | 39046 ft | 508 kts | 154° |
| 2026-05-04 00:46 | -16.58615 | 145.59365 | 39044 ft | 508 kts | 154° |
| 2026-05-04 00:47 | -16.64831 | 145.62901 | 39047 ft | 510 kts | 154° |
| 2026-05-04 00:47 | -16.71069 | 145.66453 | 39052 ft | 512 kts | 154° |
| 2026-05-04 00:48 | -16.77334 | 145.70025 | 39052 ft | 514 kts | 154° |
| 2026-05-04 00:48 | -16.83624 | 145.73613 | 39053 ft | 516 kts | 154° |
| 2026-05-04 00:49 | -16.89740 | 145.77579 | 39031 ft | 520 kts | 149° |
| 2026-05-04 00:49 | -16.95749 | 145.81807 | 39031 ft | 521 kts | 149° |
| 2026-05-04 00:50 | -17.01758 | 145.86045 | 39035 ft | 521 kts | 149° |
| 2026-05-04 00:50 | -17.07780 | 145.90259 | 39033 ft | 520 kts | 149° |
| 2026-05-04 00:51 | -17.13787 | 145.94447 | 39049 ft | 518 kts | 149° |
| 2026-05-04 00:51 | -17.19774 | 145.98623 | 39072 ft | 517 kts | 149° |
| 2026-05-04 00:52 | -17.25719 | 146.02774 | 39053 ft | 517 kts | 149° |
| 2026-05-04 00:52 | -17.31691 | 146.06948 | 39056 ft | 516 kts | 150° |
| 2026-05-04 00:53 | -17.37665 | 146.11128 | 39059 ft | 516 kts | 150° |
| 2026-05-04 00:53 | -17.43639 | 146.15311 | 39053 ft | 516 kts | 150° |
| 2026-05-04 00:54 | -17.49607 | 146.19493 | 39056 ft | 516 kts | 150° |
| 2026-05-04 00:54 | -17.55577 | 146.23680 | 39049 ft | 517 kts | 150° |
| 2026-05-04 00:55 | -17.61556 | 146.27877 | 39055 ft | 517 kts | 150° |
| 2026-05-04 00:55 | -17.67537 | 146.32078 | 39059 ft | 518 kts | 150° |
| 2026-05-04 00:56 | -17.73524 | 146.36288 | 39054 ft | 518 kts | 150° |
| 2026-05-04 00:56 | -17.79512 | 146.40501 | 39057 ft | 518 kts | 150° |
| 2026-05-04 00:57 | -17.85497 | 146.44716 | 39053 ft | 518 kts | 150° |
| 2026-05-04 00:57 | -17.91487 | 146.48938 | 39060 ft | 518 kts | 150° |
| 2026-05-04 00:58 | -17.97472 | 146.53159 | 39053 ft | 518 kts | 150° |
| 2026-05-04 00:58 | -18.03447 | 146.57378 | 39057 ft | 518 kts | 150° |
| 2026-05-04 00:59 | -18.09420 | 146.61598 | 39056 ft | 517 kts | 150° |
| 2026-05-04 00:59 | -18.15394 | 146.65823 | 39057 ft | 517 kts | 150° |
| 2026-05-04 01:00 | -18.21361 | 146.70046 | 39056 ft | 517 kts | 150° |
| 2026-05-04 01:00 | -18.26321 | 146.73560 | 39061 ft | 517 kts | 150° |
| 2026-05-04 01:01 | -18.32286 | 146.77789 | 39061 ft | 517 kts | 150° |
| 2026-05-04 01:01 | -18.38354 | 146.81828 | 39060 ft | 514 kts | 155° |
| 2026-05-04 01:02 | -18.44604 | 146.85476 | 39064 ft | 513 kts | 156° |
| 2026-05-04 01:02 | -18.50866 | 146.89091 | 39056 ft | 513 kts | 155° |
| 2026-05-04 01:03 | -18.57116 | 146.92738 | 39065 ft | 514 kts | 155° |
| 2026-05-04 01:03 | -18.63356 | 146.96407 | 39058 ft | 514 kts | 155° |
| 2026-05-04 01:04 | -18.69551 | 147.00059 | 39057 ft | 513 kts | 155° |
| 2026-05-04 01:04 | -18.75780 | 147.03731 | 39060 ft | 513 kts | 155° |
| 2026-05-04 01:05 | -18.82012 | 147.07405 | 39062 ft | 513 kts | 155° |
| 2026-05-04 01:05 | -18.88241 | 147.11081 | 39064 ft | 513 kts | 155° |
| 2026-05-04 01:06 | -18.94472 | 147.14762 | 39059 ft | 513 kts | 155° |
| 2026-05-04 01:06 | -19.00702 | 147.18445 | 39061 ft | 513 kts | 155° |
| 2026-05-04 01:07 | -19.06938 | 147.22135 | 39063 ft | 514 kts | 155° |
| 2026-05-04 01:07 | -19.13176 | 147.25829 | 39057 ft | 514 kts | 155° |
| 2026-05-04 01:08 | -19.19417 | 147.29529 | 39069 ft | 514 kts | 155° |
| 2026-05-04 01:08 | -19.25666 | 147.33236 | 39064 ft | 515 kts | 155° |
| 2026-05-04 01:09 | -19.31921 | 147.36950 | 39067 ft | 516 kts | 155° |
| 2026-05-04 01:09 | -19.38181 | 147.40671 | 39065 ft | 516 kts | 155° |
| 2026-05-04 01:10 | -19.44444 | 147.44397 | 39067 ft | 516 kts | 155° |
| 2026-05-04 01:10 | -19.50702 | 147.48123 | 39074 ft | 516 kts | 155° |
| 2026-05-04 01:11 | -19.56963 | 147.51855 | 39063 ft | 516 kts | 155° |
| 2026-05-04 01:11 | -19.63221 | 147.55588 | 39063 ft | 516 kts | 155° |
| 2026-05-04 01:12 | -19.69481 | 147.59325 | 39062 ft | 516 kts | 155° |
| 2026-05-04 01:12 | -19.75736 | 147.63058 | 39068 ft | 516 kts | 155° |
| 2026-05-04 01:13 | -19.81993 | 147.66792 | 39073 ft | 515 kts | 155° |
| 2026-05-04 01:13 | -19.88239 | 147.70525 | 39071 ft | 515 kts | 156° |
| 2026-05-04 01:14 | -19.94487 | 147.74263 | 39067 ft | 515 kts | 156° |
| 2026-05-04 01:14 | -20.00731 | 147.78002 | 39068 ft | 515 kts | 156° |
| 2026-05-04 01:15 | -20.06970 | 147.81742 | 39066 ft | 515 kts | 156° |
| 2026-05-04 01:15 | -20.13208 | 147.85485 | 39067 ft | 515 kts | 156° |
| 2026-05-04 01:16 | -20.19443 | 147.89230 | 39069 ft | 515 kts | 156° |
| 2026-05-04 01:16 | -20.25681 | 147.92979 | 39073 ft | 515 kts | 156° |
| 2026-05-04 01:17 | -20.31926 | 147.96735 | 39071 ft | 516 kts | 156° |
| 2026-05-04 01:17 | -20.38178 | 148.00500 | 39073 ft | 516 kts | 156° |
| 2026-05-04 01:18 | -20.44377 | 148.04237 | 39077 ft | 516 kts | 156° |
| 2026-05-04 01:18 | -20.50627 | 148.08009 | 39078 ft | 516 kts | 156° |
| 2026-05-04 01:19 | -20.56878 | 148.11783 | 39078 ft | 516 kts | 156° |
| 2026-05-04 01:19 | -20.63124 | 148.15559 | 39087 ft | 516 kts | 156° |
| 2026-05-04 01:20 | -20.69374 | 148.19340 | 39078 ft | 517 kts | 156° |
| 2026-05-04 01:20 | -20.75632 | 148.23131 | 39070 ft | 516 kts | 156° |
| 2026-05-04 01:21 | -20.81881 | 148.26920 | 39090 ft | 517 kts | 156° |
| 2026-05-04 01:21 | -20.88129 | 148.30711 | 39086 ft | 517 kts | 156° |
| 2026-05-04 01:22 | -20.94383 | 148.34509 | 39079 ft | 517 kts | 156° |
| 2026-05-04 01:22 | -21.00637 | 148.38311 | 39088 ft | 517 kts | 155° |
| 2026-05-04 01:23 | -21.06885 | 148.42115 | 39082 ft | 517 kts | 155° |
| 2026-05-04 01:23 | -21.13125 | 148.45917 | 39113 ft | 516 kts | 156° |
| 2026-05-04 01:24 | -21.19378 | 148.49725 | 39096 ft | 517 kts | 156° |
| 2026-05-04 01:24 | -21.25632 | 148.53543 | 39092 ft | 517 kts | 156° |
| 2026-05-04 01:25 | -21.31885 | 148.57365 | 39085 ft | 518 kts | 156° |
| 2026-05-04 01:25 | -21.38148 | 148.61196 | 39067 ft | 518 kts | 156° |
| 2026-05-04 01:26 | -21.44398 | 148.65023 | 39094 ft | 517 kts | 156° |
| 2026-05-04 01:26 | -21.50655 | 148.68857 | 39091 ft | 518 kts | 156° |
| 2026-05-04 01:27 | -21.56906 | 148.72691 | 39084 ft | 518 kts | 155° |
| 2026-05-04 01:27 | -21.63160 | 148.76531 | 39085 ft | 517 kts | 156° |
| 2026-05-04 01:28 | -21.69402 | 148.80368 | 39084 ft | 517 kts | 156° |
| 2026-05-04 01:28 | -21.75648 | 148.84211 | 39088 ft | 517 kts | 156° |
| 2026-05-04 01:29 | -21.81890 | 148.88058 | 39092 ft | 517 kts | 156° |
| 2026-05-04 01:29 | -21.88135 | 148.91906 | 39077 ft | 518 kts | 156° |
| 2026-05-04 01:30 | -21.94384 | 148.95761 | 39088 ft | 518 kts | 156° |
| 2026-05-04 01:30 | -22.00647 | 148.99630 | 39100 ft | 519 kts | 156° |
| 2026-05-04 01:31 | -22.06908 | 149.03502 | 39088 ft | 519 kts | 156° |
| 2026-05-04 01:31 | -22.13132 | 149.07356 | 39090 ft | 519 kts | 156° |
| 2026-05-04 01:32 | -22.19399 | 149.11240 | 39092 ft | 519 kts | 156° |
| 2026-05-04 01:32 | -22.25665 | 149.15127 | 39092 ft | 520 kts | 156° |
| 2026-05-04 01:33 | -22.31935 | 149.19021 | 39086 ft | 519 kts | 156° |
| 2026-05-04 01:33 | -22.38236 | 149.22938 | 39089 ft | 519 kts | 156° |
| 2026-05-04 01:34 | -22.44489 | 149.26829 | 39104 ft | 519 kts | 156° |
| 2026-05-04 01:34 | -22.50709 | 149.30703 | 39093 ft | 519 kts | 156° |
| 2026-05-04 01:35 | -22.56970 | 149.34611 | 39099 ft | 519 kts | 156° |
| 2026-05-04 01:35 | -22.63228 | 149.38514 | 39092 ft | 519 kts | 156° |
| 2026-05-04 01:36 | -22.69497 | 149.42430 | 39098 ft | 520 kts | 156° |
| 2026-05-04 01:36 | -22.75768 | 149.46354 | 39100 ft | 521 kts | 156° |
| 2026-05-04 01:37 | -22.82051 | 149.50292 | 39087 ft | 522 kts | 156° |
| 2026-05-04 01:37 | -22.88340 | 149.54234 | 39090 ft | 522 kts | 156° |
| 2026-05-04 01:38 | -22.94628 | 149.58180 | 39090 ft | 523 kts | 156° |
| 2026-05-04 01:38 | -23.00926 | 149.62139 | 39093 ft | 523 kts | 156° |
| 2026-05-04 01:39 | -23.07216 | 149.66098 | 39097 ft | 523 kts | 156° |
| 2026-05-04 01:39 | -23.13502 | 149.70066 | 39098 ft | 523 kts | 156° |
| 2026-05-04 01:40 | -23.19788 | 149.74041 | 39090 ft | 523 kts | 156° |
| 2026-05-04 01:40 | -23.26076 | 149.78021 | 39086 ft | 523 kts | 156° |
| 2026-05-04 01:41 | -23.32370 | 149.82010 | 39087 ft | 523 kts | 156° |
| 2026-05-04 01:41 | -23.38656 | 149.85998 | 39096 ft | 523 kts | 156° |
| 2026-05-04 01:42 | -23.44949 | 149.89995 | 39100 ft | 523 kts | 156° |
| 2026-05-04 01:42 | -23.51244 | 149.93997 | 39089 ft | 524 kts | 156° |
| 2026-05-04 01:43 | -23.57539 | 149.98003 | 39091 ft | 524 kts | 156° |
| 2026-05-04 01:43 | -23.63831 | 150.02013 | 39083 ft | 524 kts | 156° |
| 2026-05-04 01:44 | -23.70121 | 150.06026 | 39077 ft | 524 kts | 156° |
| 2026-05-04 01:44 | -23.76419 | 150.10047 | 39093 ft | 525 kts | 156° |
| 2026-05-04 01:45 | -23.82730 | 150.14082 | 39090 ft | 526 kts | 156° |
| 2026-05-04 01:45 | -23.91133 | 150.19462 | 39097 ft | 526 kts | 156° |
| 2026-05-04 01:46 | -23.98515 | 150.24196 | 39090 ft | 526 kts | 156° |
| 2026-05-04 01:46 | -24.03764 | 150.27565 | 39101 ft | 526 kts | 156° |
| 2026-05-04 01:47 | -24.10079 | 150.31623 | 39096 ft | 527 kts | 156° |
| 2026-05-04 01:47 | -24.16395 | 150.35686 | 39094 ft | 527 kts | 156° |
| 2026-05-04 01:48 | -24.22712 | 150.39755 | 39087 ft | 527 kts | 156° |
| 2026-05-04 01:48 | -24.29026 | 150.43826 | 39089 ft | 527 kts | 156° |
| 2026-05-04 01:49 | -24.35344 | 150.47906 | 39113 ft | 527 kts | 156° |
| 2026-05-04 01:49 | -24.41670 | 150.51995 | 39094 ft | 528 kts | 156° |
| 2026-05-04 01:50 | -24.47996 | 150.56088 | 39092 ft | 528 kts | 156° |
| 2026-05-04 01:50 | -24.54230 | 150.60404 | 39093 ft | 531 kts | 153° |
| 2026-05-04 01:51 | -24.60376 | 150.64932 | 39100 ft | 532 kts | 153° |
| 2026-05-04 01:51 | -24.66519 | 150.69476 | 39095 ft | 532 kts | 153° |
| 2026-05-04 01:52 | -24.72683 | 150.74002 | 39097 ft | 532 kts | 153° |
| 2026-05-04 01:52 | -24.78843 | 150.78511 | 39101 ft | 532 kts | 153° |
| 2026-05-04 01:53 | -24.84990 | 150.83014 | 39091 ft | 531 kts | 153° |
| 2026-05-04 01:53 | -24.91092 | 150.87492 | 39105 ft | 530 kts | 153° |
| 2026-05-04 01:54 | -24.97219 | 150.91995 | 39106 ft | 529 kts | 153° |
| 2026-05-04 01:54 | -25.03382 | 150.96530 | 39116 ft | 529 kts | 153° |
| 2026-05-04 01:55 | -25.09459 | 151.01006 | 39102 ft | 530 kts | 153° |
| 2026-05-04 01:55 | -25.15588 | 151.05527 | 39107 ft | 530 kts | 153° |
| 2026-05-04 01:56 | -25.21714 | 151.10051 | 39105 ft | 530 kts | 153° |
| 2026-05-04 01:56 | -25.27841 | 151.14582 | 39100 ft | 530 kts | 153° |
| 2026-05-04 01:57 | -25.33970 | 151.19119 | 39117 ft | 530 kts | 153° |
| 2026-05-04 01:57 | -25.40101 | 151.23664 | 39107 ft | 531 kts | 153° |
| 2026-05-04 01:58 | -25.46243 | 151.28223 | 39105 ft | 532 kts | 153° |
| 2026-05-04 01:58 | -25.52381 | 151.32786 | 39110 ft | 532 kts | 153° |
| 2026-05-04 01:59 | -25.58521 | 151.37353 | 39102 ft | 532 kts | 153° |
| 2026-05-04 01:59 | -25.64667 | 151.41934 | 39114 ft | 532 kts | 153° |
| 2026-05-04 02:00 | -25.70811 | 151.46518 | 39104 ft | 532 kts | 153° |
| 2026-05-04 02:00 | -25.76799 | 151.51404 | 39103 ft | 540 kts | 145° |
| 2026-05-04 02:01 | -25.82402 | 151.56970 | 39109 ft | 541 kts | 143° |
| 2026-05-04 02:01 | -25.87970 | 151.62606 | 39102 ft | 542 kts | 143° |
| 2026-05-04 02:02 | -25.93567 | 151.68214 | 39106 ft | 541 kts | 144° |
| 2026-05-04 02:02 | -25.99175 | 151.73790 | 39119 ft | 541 kts | 144° |
| 2026-05-04 02:03 | -26.04789 | 151.79371 | 39106 ft | 542 kts | 144° |
| 2026-05-04 02:03 | -26.09885 | 151.84449 | 39109 ft | 541 kts | 144° |
| 2026-05-04 02:04 | -26.15403 | 151.89966 | 38802 ft | 530 kts | 144° |
| 2026-05-04 02:04 | -26.18141 | 151.92711 | 37724 ft | 520 kts | 144° |
| 2026-05-04 02:04 | -26.20837 | 151.95407 | 36147 ft | 522 kts | 144° |
| 2026-05-04 02:05 | -26.23550 | 151.98114 | 34601 ft | 525 kts | 143° |
| 2026-05-04 02:05 | -26.26220 | 152.00784 | 33231 ft | 521 kts | 143° |
| 2026-05-04 02:05 | -26.28895 | 152.03464 | 31962 ft | 512 kts | 142° |
| 2026-05-04 02:05 | -26.31517 | 152.06097 | 30836 ft | 502 kts | 142° |
| 2026-05-04 02:06 | -26.34084 | 152.08675 | 29713 ft | 492 kts | 141° |
| 2026-05-04 02:06 | -26.36603 | 152.11206 | 28504 ft | 482 kts | 141° |
| 2026-05-04 02:06 | -26.39061 | 152.13677 | 27371 ft | 471 kts | 141° |
| 2026-05-04 02:06 | -26.41471 | 152.16099 | 26291 ft | 461 kts | 141° |
| 2026-05-04 02:07 | -26.43827 | 152.18467 | 25240 ft | 452 kts | 141° |
| 2026-05-04 02:07 | -26.46141 | 152.20795 | 24226 ft | 443 kts | 141° |
| 2026-05-04 02:07 | -26.48406 | 152.23074 | 23158 ft | 435 kts | 141° |
| 2026-05-04 02:07 | -26.50633 | 152.25316 | 22043 ft | 427 kts | 140° |
| 2026-05-04 02:08 | -26.52819 | 152.27513 | 20926 ft | 419 kts | 140° |
| 2026-05-04 02:08 | -26.54969 | 152.29678 | 19886 ft | 412 kts | 140° |
| 2026-05-04 02:08 | -26.57071 | 152.31805 | 19226 ft | 406 kts | 140° |
| 2026-05-04 02:08 | -26.59158 | 152.33914 | 18827 ft | 404 kts | 140° |
| 2026-05-04 02:09 | -26.61240 | 152.36016 | 18385 ft | 403 kts | 139° |
| 2026-05-04 02:09 | -26.63317 | 152.38114 | 17879 ft | 403 kts | 139° |
| 2026-05-04 02:09 | -26.65380 | 152.40220 | 17406 ft | 400 kts | 139° |
| 2026-05-04 02:09 | -26.67423 | 152.42329 | 16960 ft | 398 kts | 138° |
| 2026-05-04 02:10 | -26.69443 | 152.44422 | 16508 ft | 396 kts | 138° |
| 2026-05-04 02:10 | -26.71458 | 152.46511 | 16047 ft | 393 kts | 138° |
| 2026-05-04 02:10 | -26.73459 | 152.48584 | 15603 ft | 391 kts | 138° |
| 2026-05-04 02:10 | -26.75450 | 152.50646 | 15156 ft | 389 kts | 138° |
| 2026-05-04 02:11 | -26.77433 | 152.52699 | 14696 ft | 387 kts | 138° |
| 2026-05-04 02:11 | -26.79402 | 152.54739 | 14228 ft | 385 kts | 137° |
| 2026-05-04 02:11 | -26.81362 | 152.56767 | 13739 ft | 376 kts | 137° |
| 2026-05-04 02:11 | -26.83223 | 152.58698 | 13270 ft | 359 kts | 137° |
| 2026-05-04 02:12 | -26.85050 | 152.60595 | 12825 ft | 358 kts | 137° |
| 2026-05-04 02:12 | -26.86874 | 152.62487 | 12392 ft | 356 kts | 137° |
| 2026-05-04 02:12 | -26.88689 | 152.64368 | 11971 ft | 354 kts | 137° |
| 2026-05-04 02:12 | -26.90494 | 152.66231 | 11537 ft | 353 kts | 137° |
| 2026-05-04 02:13 | -26.92297 | 152.68091 | 11111 ft | 352 kts | 138° |
| 2026-05-04 02:13 | -26.94090 | 152.69942 | 10707 ft | 349 kts | 137° |
| 2026-05-04 02:13 | -26.95848 | 152.71759 | 10553 ft | 339 kts | 138° |
| 2026-05-04 02:13 | -26.97552 | 152.73516 | 10350 ft | 324 kts | 138° |
| 2026-05-04 02:14 | -26.99163 | 152.75169 | 10137 ft | 302 kts | 135° |
| 2026-05-04 02:14 | -27.00360 | 152.77026 | 10007 ft | 290 kts | 115° |
| 2026-05-04 02:14 | -27.01112 | 152.79078 | 9964 ft | 279 kts | 112° |
| 2026-05-04 02:14 | -27.01822 | 152.81055 | 9857 ft | 269 kts | 112° |
| 2026-05-04 02:15 | -27.02508 | 152.82944 | 9540 ft | 256 kts | 112° |
| 2026-05-04 02:15 | -27.03171 | 152.84754 | 9062 ft | 246 kts | 112° |
| 2026-05-04 02:15 | -27.03817 | 152.86506 | 8560 ft | 238 kts | 112° |
| 2026-05-04 02:15 | -27.04434 | 152.88171 | 8248 ft | 226 kts | 112° |
| 2026-05-04 02:16 | -27.05032 | 152.89784 | 7995 ft | 223 kts | 111° |
| 2026-05-04 02:16 | -27.05623 | 152.91377 | 7725 ft | 219 kts | 112° |
| 2026-05-04 02:16 | -27.06205 | 152.92938 | 7478 ft | 216 kts | 112° |
| 2026-05-04 02:16 | -27.06779 | 152.94483 | 7227 ft | 213 kts | 112° |
| 2026-05-04 02:17 | -27.07342 | 152.96013 | 7005 ft | 209 kts | 108° |
| 2026-05-04 02:17 | -27.07724 | 152.97586 | 6885 ft | 211 kts | 102° |
| 2026-05-04 02:17 | -27.08040 | 152.99204 | 6755 ft | 214 kts | 101° |
| 2026-05-04 02:17 | -27.08359 | 153.00843 | 6608 ft | 214 kts | 101° |
| 2026-05-04 02:18 | -27.08681 | 153.02467 | 6466 ft | 213 kts | 102° |
| 2026-05-04 02:18 | -27.09007 | 153.04079 | 6327 ft | 211 kts | 102° |
| 2026-05-04 02:18 | -27.09333 | 153.05680 | 6183 ft | 210 kts | 102° |
| 2026-05-04 02:18 | -27.09658 | 153.07265 | 6098 ft | 208 kts | 102° |
| 2026-05-04 02:19 | -27.09987 | 153.08860 | 5949 ft | 211 kts | 102° |
| 2026-05-04 02:19 | -27.10317 | 153.10466 | 5799 ft | 211 kts | 102° |
| 2026-05-04 02:19 | -27.10631 | 153.12058 | 5655 ft | 206 kts | 97° |
| 2026-05-04 02:19 | -27.10721 | 153.13650 | 5532 ft | 203 kts | 91° |
| 2026-05-04 02:20 | -27.10748 | 153.15183 | 5435 ft | 189 kts | 91° |
| 2026-05-04 02:20 | -27.10778 | 153.16653 | 5290 ft | 187 kts | 91° |
| 2026-05-04 02:20 | -27.10813 | 153.18081 | 5201 ft | 178 kts | 91° |
| 2026-05-04 02:20 | -27.10856 | 153.19420 | 5028 ft | 165 kts | 99° |
| 2026-05-04 02:21 | -27.11174 | 153.20657 | 4975 ft | 165 kts | 106° |
| 2026-05-04 02:21 | -27.11494 | 153.21890 | 4985 ft | 164 kts | 105° |
| 2026-05-04 02:21 | -27.11889 | 153.23081 | 4884 ft | 162 kts | 118° |
| 2026-05-04 02:21 | -27.12554 | 153.24086 | 4439 ft | 161 kts | 140° |
| 2026-05-04 02:22 | -27.13594 | 153.24500 | 3877 ft | 161 kts | 178° |
| 2026-05-04 02:22 | -27.14653 | 153.24144 | 3757 ft | 163 kts | 208° |
| 2026-05-04 02:22 | -27.15673 | 153.23535 | 3774 ft | 169 kts | 204° |
| 2026-05-04 02:22 | -27.16690 | 153.22996 | 3595 ft | 160 kts | 202° |
| 2026-05-04 02:23 | -27.17713 | 153.22440 | 3524 ft | 168 kts | 204° |
| 2026-05-04 02:23 | -27.18797 | 153.21833 | 3413 ft | 173 kts | 204° |
| 2026-05-04 02:23 | -27.19853 | 153.21233 | 3254 ft | 170 kts | 204° |
| 2026-05-04 02:23 | -27.20895 | 153.20639 | 3128 ft | 168 kts | 204° |
| 2026-05-04 02:24 | -27.21944 | 153.20042 | 2962 ft | 171 kts | 205° |
| 2026-05-04 02:24 | -27.22999 | 153.19439 | 2745 ft | 169 kts | 205° |
| 2026-05-04 02:24 | -27.24031 | 153.18848 | 2547 ft | 164 kts | 205° |
| 2026-05-04 02:24 | -27.25054 | 153.18264 | 2318 ft | 165 kts | 204° |
| 2026-05-04 02:25 | -27.26072 | 153.17682 | 2104 ft | 164 kts | 204° |
| 2026-05-04 02:25 | -27.27092 | 153.17099 | 1872 ft | 164 kts | 204° |
| 2026-05-04 02:25 | -27.28104 | 153.16521 | 1668 ft | 162 kts | 204° |
| 2026-05-04 02:25 | -27.29090 | 153.15956 | 1457 ft | 156 kts | 204° |
| 2026-05-04 02:26 | -27.30022 | 153.15424 | 1247 ft | 146 kts | 204° |
| 2026-05-04 02:26 | -27.30901 | 153.14922 | 1074 ft | 143 kts | 204° |
| 2026-05-04 02:26 | -27.31793 | 153.14412 | 887 ft | 144 kts | 205° |
| 2026-05-04 02:26 | -27.32680 | 153.13904 | 710 ft | 144 kts | 205° |
| 2026-05-04 02:27 | -27.33567 | 153.13396 | 503 ft | 142 kts | 204° |
| 2026-05-04 02:27 | -27.34450 | 153.12891 | 321 ft | 142 kts | 204° |
| 2026-05-04 02:27 | -27.35341 | 153.12381 | 141 ft | 146 kts | 204° |
| 2026-05-04 02:27 | -27.36236 | 153.11864 | 30 ft | 137 kts | 204° |
| 2026-05-04 02:28 | -27.36976 | 153.11442 | 29 ft | 95 kts | 207° |
| 2026-05-04 02:28 | -27.37403 | 153.11198 | 24 ft | 49 kts | 206° |
| 2026-05-04 02:28 | -27.37620 | 153.11123 | 24 ft | 30 kts | 181° |
| 2026-05-04 02:28 | -27.37765 | 153.11130 | 24 ft | 12 kts | 177° |
| 2026-05-04 02:29 | -27.37833 | 153.11135 | 25 ft | 8 kts | 169° |
| 2026-05-04 02:29 | -27.37877 | 153.11174 | 26 ft | 8 kts | 126° |
| 2026-05-04 02:29 | -27.37884 | 153.11236 | 25 ft | 8 kts | 67° |
| 2026-05-04 02:29 | -27.37836 | 153.11277 | 25 ft | 9 kts | 27° |
| 2026-05-04 02:30 | -27.37777 | 153.11311 | 27 ft | 10 kts | 27° |
| 2026-05-04 02:30 | -27.37713 | 153.11348 | 25 ft | 11 kts | 27° |
| 2026-05-04 02:30 | -27.37643 | 153.11388 | 24 ft | 12 kts | 27° |
| 2026-05-04 02:30 | -27.37594 | 153.11417 | 26 ft | 12 kts | 27° |
| 2026-05-04 02:31 | -27.37487 | 153.11477 | 24 ft | 13 kts | 27° |
| 2026-05-04 02:31 | -27.37403 | 153.11525 | 27 ft | 14 kts | 27° |
| 2026-05-04 02:31 | -27.37352 | 153.11554 | 27 ft | 10 kts | 27° |
| 2026-05-04 02:31 | -27.37329 | 153.11622 | 26 ft | 10 kts | 104° |
| 2026-05-04 02:32 | -27.37373 | 153.11720 | 26 ft | 10 kts | 117° |
| 2026-05-04 02:32 | -27.37395 | 153.11768 | 25 ft | 10 kts | 117° |
| 2026-05-04 02:32 | -27.37428 | 153.11841 | 22 ft | 10 kts | 117° |
| 2026-05-04 02:32 | -27.37462 | 153.11915 | 26 ft | 11 kts | 117° |
| 2026-05-04 02:33 | -27.37498 | 153.11994 | 24 ft | 12 kts | 117° |
| 2026-05-04 02:33 | -27.37535 | 153.12077 | 25 ft | 12 kts | 117° |
| 2026-05-04 02:33 | -27.37575 | 153.12164 | 27 ft | 13 kts | 117° |
| 2026-05-04 02:33 | -27.37616 | 153.12254 | 27 ft | 13 kts | 117° |
| 2026-05-04 02:34 | -27.37659 | 153.12347 | 23 ft | 14 kts | 117° |
| 2026-05-04 02:34 | -27.37704 | 153.12443 | 24 ft | 14 kts | 118° |
| 2026-05-04 02:34 | -27.37750 | 153.12542 | 26 ft | 14 kts | 117° |
| 2026-05-04 02:34 | -27.37796 | 153.12642 | 25 ft | 14 kts | 117° |
| 2026-05-04 02:35 | -27.37842 | 153.12743 | 25 ft | 14 kts | 117° |
| 2026-05-04 02:35 | -27.37886 | 153.12844 | 26 ft | 14 kts | 116° |
| 2026-05-04 02:35 | -27.37927 | 153.12916 | 24 ft | 10 kts | 151° |
| 2026-05-04 02:35 | -27.37997 | 153.12899 | 26 ft | 11 kts | 205° |
| 2026-05-04 02:36 | -27.38065 | 153.12860 | 27 ft | 11 kts | 207° |
| 2026-05-04 02:36 | -27.38138 | 153.12818 | 28 ft | 14 kts | 207° |
| 2026-05-04 02:36 | -27.38242 | 153.12758 | 26 ft | 20 kts | 207° |
| 2026-05-04 02:36 | -27.38370 | 153.12686 | 26 ft | 21 kts | 207° |
| 2026-05-04 02:37 | -27.38498 | 153.12612 | 27 ft | 21 kts | 207° |
| 2026-05-04 02:37 | -27.38627 | 153.12539 | 26 ft | 21 kts | 207° |
| 2026-05-04 02:37 | -27.38755 | 153.12465 | 24 ft | 21 kts | 207° |
| 2026-05-04 02:37 | -27.38884 | 153.12392 | 27 ft | 21 kts | 207° |
| 2026-05-04 02:38 | -27.39012 | 153.12318 | 26 ft | 21 kts | 207° |
| 2026-05-04 02:38 | -27.39140 | 153.12245 | 27 ft | 21 kts | 207° |
| 2026-05-04 02:38 | -27.39268 | 153.12171 | 28 ft | 21 kts | 207° |
| 2026-05-04 02:38 | -27.39397 | 153.12098 | 28 ft | 21 kts | 207° |
| 2026-05-04 02:39 | -27.39526 | 153.12025 | 26 ft | 21 kts | 207° |
| 2026-05-04 02:39 | -27.39653 | 153.11953 | 23 ft | 21 kts | 207° |
| 2026-05-04 02:39 | -27.39783 | 153.11879 | 25 ft | 21 kts | 207° |
| 2026-05-04 02:39 | -27.39911 | 153.11806 | 27 ft | 21 kts | 207° |
| 2026-05-04 02:40 | -27.40040 | 153.11732 | 24 ft | 21 kts | 207° |
| 2026-05-04 02:40 | -27.40159 | 153.11665 | 27 ft | 17 kts | 207° |
| 2026-05-04 02:40 | -27.40238 | 153.11620 | 24 ft | 9 kts | 207° |
| 2026-05-04 02:40 | -27.40263 | 153.11559 | 27 ft | 10 kts | 282° |
| 2026-05-04 02:41 | -27.40251 | 153.11482 | 27 ft | 10 kts | 246° |
| 2026-05-04 02:41 | -27.40311 | 153.11436 | 25 ft | 11 kts | 205° |
| 2026-05-04 02:41 | -27.40380 | 153.11398 | 28 ft | 11 kts | 206° |
| 2026-05-04 02:41 | -27.40448 | 153.11359 | 25 ft | 11 kts | 207° |
| 2026-05-04 02:42 | -27.40517 | 153.11320 | 27 ft | 11 kts | 207° |
| 2026-05-04 02:42 | -27.40576 | 153.11282 | 26 ft | 10 kts | 228° |
| 2026-05-04 02:42 | -27.40570 | 153.11207 | 25 ft | 11 kts | 292° |
| 2026-05-04 02:42 | -27.40526 | 153.11151 | 24 ft | 8 kts | 328° |
| 2026-05-04 02:43 | -27.40489 | 153.11109 | 24 ft | 7 kts | 299° |
| 2026-05-04 02:43 | -27.40473 | 153.11072 | 27 ft | 2 kts | 297° |
| 2026-05-04 02:43 | -27.40467 | 153.11060 | 27 ft | 1 kts | 297° |
| 2026-05-04 02:43 | -27.40465 | 153.11054 | 25 ft | 0 kts | 297° |